createdAt,value
2017-12-25T00:00:00.219Z,986.13
2017-12-25T00:00:39.219Z,986.04
2017-12-25T00:01:39.201Z,986.11
2017-12-25T00:02:40.089Z,986.11
2017-12-25T00:04:00.200Z,986.08
2017-12-25T00:05:00.195Z,986.09
2017-12-25T00:05:39.267Z,986.06
2017-12-25T00:06:39.184Z,986.03
2017-12-25T00:07:41.508Z,986.04
2017-12-25T00:09:01.078Z,986.05
2017-12-25T00:10:00.721Z,986.02
2017-12-25T00:10:39.194Z,986.01
2017-12-25T00:11:39.214Z,986.00
2017-12-25T00:12:39.176Z,986.00
2017-12-25T00:14:01.071Z,986.05
2017-12-25T00:15:00.159Z,986.01
2017-12-25T00:15:39.249Z,986.01
2017-12-25T00:16:39.705Z,985.99
2017-12-25T00:17:39.156Z,986.07
2017-12-25T00:19:00.686Z,985.99
2017-12-25T00:20:00.128Z,986.00
2017-12-25T00:20:39.163Z,986.01
2017-12-25T00:21:39.637Z,985.90
2017-12-25T00:22:40.098Z,985.94
2017-12-25T00:24:00.106Z,985.96
2017-12-25T00:25:01.035Z,985.95
2017-12-25T00:25:39.194Z,986.02
2017-12-25T00:26:40.075Z,985.97
2017-12-25T00:27:39.123Z,985.97
2017-12-25T00:29:00.134Z,985.98
2017-12-25T00:30:00.988Z,985.91
2017-12-25T00:30:39.093Z,985.95
2017-12-25T00:31:39.077Z,985.99
2017-12-25T00:32:39.146Z,985.99
2017-12-25T00:34:00.096Z,985.95
2017-12-25T00:35:00.099Z,985.93
2017-12-25T00:35:39.070Z,985.91
2017-12-25T00:36:39.053Z,985.92
2017-12-25T00:37:39.577Z,985.83
2017-12-25T00:39:00.722Z,985.89
2017-12-25T00:40:00.066Z,985.92
2017-12-25T00:40:39.066Z,985.92
2017-12-25T00:41:39.077Z,985.92
2017-12-25T00:42:39.061Z,985.86
2017-12-25T00:44:00.075Z,985.89
2017-12-25T00:45:00.032Z,985.93
2017-12-25T00:45:39.041Z,985.90
2017-12-25T00:46:39.061Z,985.93
2017-12-25T00:47:39.020Z,985.97
2017-12-25T00:49:00.100Z,985.95
2017-12-25T00:50:00.057Z,986.00
2017-12-25T00:50:39.057Z,986.01
2017-12-25T00:51:39.007Z,986.01
2017-12-25T00:52:39.008Z,986.14
2017-12-25T00:54:00.095Z,986.04
2017-12-25T00:54:59.980Z,986.09
2017-12-25T00:55:38.991Z,986.14
2017-12-25T00:56:38.988Z,986.17
2017-12-25T00:57:39.079Z,986.06
2017-12-25T00:58:59.989Z,986.17
2017-12-25T01:00:00.053Z,986.17
2017-12-25T01:00:39.019Z,986.26
2017-12-25T01:01:38.989Z,986.20
2017-12-25T01:02:38.998Z,986.20
2017-12-25T01:03:59.986Z,986.26
2017-12-25T01:04:59.940Z,986.27
2017-12-25T01:05:38.993Z,986.24
2017-12-25T01:06:38.949Z,986.24
2017-12-25T01:07:38.983Z,986.25
2017-12-25T01:09:00.673Z,986.22
2017-12-25T01:09:59.940Z,986.21
2017-12-25T01:10:38.941Z,986.28
2017-12-25T01:11:38.917Z,986.29
2017-12-25T01:12:38.967Z,986.32
2017-12-25T01:13:59.938Z,986.29
2017-12-25T01:14:59.918Z,986.26
2017-12-25T01:15:38.924Z,986.27
2017-12-25T01:16:38.909Z,986.26
2017-12-25T01:17:38.904Z,986.29
2017-12-25T01:19:00.653Z,986.26
2017-12-25T01:19:59.969Z,986.24
2017-12-25T01:20:39.640Z,986.21
2017-12-25T01:21:38.984Z,986.23
2017-12-25T01:22:38.888Z,986.20
2017-12-25T01:24:00.628Z,986.23
2017-12-25T01:24:59.925Z,986.23
2017-12-25T01:25:38.872Z,986.28
2017-12-25T01:26:38.866Z,986.22
2017-12-25T01:27:38.878Z,986.23
2017-12-25T01:28:59.875Z,986.30
2017-12-25T01:29:59.904Z,986.27
2017-12-25T01:30:38.854Z,986.25
2017-12-25T01:31:38.842Z,986.25
2017-12-25T01:32:38.863Z,986.22
2017-12-25T01:33:59.850Z,986.21
2017-12-25T01:35:00.627Z,986.21
2017-12-25T01:35:38.829Z,986.20
2017-12-25T01:36:40.043Z,986.27
2017-12-25T01:37:38.816Z,986.24
2017-12-25T01:38:59.814Z,986.27
2017-12-25T01:39:59.826Z,986.29
2017-12-25T01:40:38.824Z,986.26
2017-12-25T01:41:39.575Z,986.27
2017-12-25T01:42:38.792Z,986.28
2017-12-25T01:43:59.800Z,986.29
2017-12-25T01:44:59.823Z,986.27
2017-12-25T01:45:38.799Z,986.28
2017-12-25T01:46:39.506Z,986.19
2017-12-25T01:47:40.258Z,986.22
2017-12-25T01:48:59.828Z,986.21
2017-12-25T01:50:02.207Z,986.25
2017-12-25T01:50:38.785Z,986.20
2017-12-25T01:51:38.802Z,986.17
2017-12-25T01:52:38.774Z,986.18
2017-12-25T01:53:59.822Z,986.12
2017-12-25T01:54:59.769Z,986.12
2017-12-25T01:55:38.777Z,986.09
2017-12-25T01:56:38.753Z,986.13
2017-12-25T01:57:38.780Z,986.08
2017-12-25T01:58:59.843Z,986.10
2017-12-25T01:59:59.765Z,986.14
2017-12-25T02:00:38.781Z,986.11
2017-12-25T02:01:39.404Z,986.12
2017-12-25T02:02:38.817Z,986.09
2017-12-25T02:03:59.739Z,986.08
2017-12-25T02:04:59.743Z,986.04
2017-12-25T02:05:38.734Z,986.06
2017-12-25T02:06:38.723Z,986.08
2017-12-25T02:07:38.726Z,986.03
2017-12-25T02:08:59.714Z,986.04
2017-12-25T02:09:59.729Z,986.00
2017-12-25T02:10:38.694Z,985.96
2017-12-25T02:11:38.674Z,985.99
2017-12-25T02:12:38.686Z,985.99
2017-12-25T02:13:59.672Z,985.98
2017-12-25T02:14:59.737Z,985.96
2017-12-25T02:15:38.738Z,985.98
2017-12-25T02:16:38.730Z,985.94
2017-12-25T02:17:38.736Z,985.98
2017-12-25T02:18:59.675Z,985.97
2017-12-25T02:20:01.034Z,986.04
2017-12-25T02:20:38.682Z,986.00
2017-12-25T02:21:38.678Z,985.99
2017-12-25T02:22:38.657Z,985.99
2017-12-25T02:23:59.659Z,985.99
2017-12-25T02:24:59.677Z,985.94
2017-12-25T02:25:38.664Z,985.99
2017-12-25T02:26:38.651Z,986.02
2017-12-25T02:27:38.629Z,985.98
2017-12-25T02:28:59.632Z,985.99
2017-12-25T02:29:59.688Z,985.96
2017-12-25T02:30:39.635Z,985.95
2017-12-25T02:31:38.622Z,985.97
2017-12-25T02:32:38.626Z,985.91
2017-12-25T02:33:59.611Z,985.90
2017-12-25T02:34:59.629Z,985.94
2017-12-25T02:35:39.516Z,985.94
2017-12-25T02:36:38.590Z,985.96
2017-12-25T02:37:38.580Z,985.93
2017-12-25T02:38:59.634Z,985.94
2017-12-25T02:39:59.592Z,985.88
2017-12-25T02:40:38.623Z,985.90
2017-12-25T02:41:38.652Z,985.93
2017-12-25T02:42:38.559Z,985.92
2017-12-25T02:43:59.587Z,986.00
2017-12-25T02:45:00.130Z,985.94
2017-12-25T02:45:38.552Z,985.96
2017-12-25T02:46:38.574Z,985.95
2017-12-25T02:47:38.535Z,985.93
2017-12-25T02:48:59.541Z,985.94
2017-12-25T02:50:00.518Z,985.94
2017-12-25T02:50:38.560Z,985.91
2017-12-25T02:51:38.513Z,985.93
2017-12-25T02:52:38.553Z,985.95
2017-12-25T02:53:59.520Z,985.95
2017-12-25T02:54:59.560Z,985.91
2017-12-25T02:55:38.529Z,985.91
2017-12-25T02:56:38.528Z,985.92
2017-12-25T02:57:38.511Z,985.94
2017-12-25T02:58:59.539Z,985.94
2017-12-25T02:59:59.552Z,985.92
2017-12-25T03:00:38.501Z,985.90
2017-12-25T03:01:38.508Z,985.91
2017-12-25T03:02:39.097Z,985.91
2017-12-25T03:03:59.549Z,985.89
2017-12-25T03:04:59.489Z,985.88
2017-12-25T03:05:38.522Z,985.89
2017-12-25T03:06:38.482Z,985.86
2017-12-25T03:07:38.515Z,985.84
2017-12-25T03:08:59.509Z,985.88
2017-12-25T03:10:01.217Z,985.84
2017-12-25T03:10:39.258Z,985.84
2017-12-25T03:11:38.464Z,985.86
2017-12-25T03:12:38.478Z,985.84
2017-12-25T03:15:11.641Z,985.79
2017-12-25T03:16:11.635Z,985.81
2017-12-25T03:18:05.051Z,985.77
2017-12-25T03:19:05.000Z,985.74
2017-12-25T03:20:58.481Z,985.73
2017-12-25T03:21:58.389Z,985.76
2017-12-25T03:23:53.011Z,985.76
2017-12-25T03:24:52.945Z,985.80
2017-12-25T03:26:46.458Z,985.67
2017-12-25T03:27:46.302Z,985.66
2017-12-25T03:30:02.059Z,985.68
2017-12-25T03:31:01.779Z,985.65
2017-12-25T03:33:03.320Z,985.70
2017-12-25T03:34:03.313Z,985.69
2017-12-25T03:35:59.209Z,985.65
2017-12-25T03:36:59.175Z,985.68
2017-12-25T03:38:53.628Z,985.69
2017-12-25T03:39:53.521Z,985.64
2017-12-25T03:41:47.913Z,985.68
2017-12-25T03:42:47.902Z,985.63
2017-12-25T03:44:41.272Z,985.62
2017-12-25T03:45:41.275Z,985.57
2017-12-25T03:47:35.185Z,985.55
2017-12-25T03:48:34.682Z,985.51
2017-12-25T03:50:29.020Z,985.53
2017-12-25T03:51:29.598Z,985.57
2017-12-25T03:53:22.391Z,985.56
2017-12-25T03:54:22.399Z,985.60
2017-12-25T03:56:17.350Z,985.61
2017-12-25T03:57:16.740Z,985.64
2017-12-25T03:59:12.175Z,985.59
2017-12-25T04:00:11.345Z,985.58
2017-12-25T04:02:05.786Z,985.58
2017-12-25T04:03:05.701Z,985.64
2017-12-25T04:05:06.104Z,985.63
2017-12-25T04:06:06.099Z,985.68
2017-12-25T04:08:11.886Z,985.61
2017-12-25T04:09:11.923Z,985.60
2017-12-25T04:10:11.868Z,985.64
2017-12-25T04:11:11.912Z,985.62
2017-12-25T04:12:11.847Z,985.64
2017-12-25T04:13:11.856Z,985.60
2017-12-25T04:14:11.849Z,985.69
2017-12-25T04:15:11.862Z,985.61
2017-12-25T04:16:13.494Z,985.56
2017-12-25T04:17:11.828Z,985.63
2017-12-25T04:18:11.831Z,985.64
2017-12-25T04:19:11.820Z,985.64
2017-12-25T04:20:11.837Z,985.62
2017-12-25T04:21:11.813Z,985.52
2017-12-25T04:22:11.815Z,985.57
2017-12-25T04:23:11.800Z,985.64
2017-12-25T04:24:11.805Z,985.60
2017-12-25T04:25:11.826Z,985.64
2017-12-25T04:26:11.791Z,985.58
2017-12-25T04:27:11.786Z,985.56
2017-12-25T04:28:11.782Z,985.53
2017-12-25T04:29:11.782Z,985.56
2017-12-25T04:30:11.792Z,985.61
2017-12-25T04:31:11.778Z,985.59
2017-12-25T04:32:11.791Z,985.59
2017-12-25T04:33:14.490Z,985.64
2017-12-25T04:34:11.761Z,985.56
2017-12-25T04:35:11.755Z,985.50
2017-12-25T04:36:11.755Z,985.56
2017-12-25T04:37:11.760Z,985.53
2017-12-25T04:38:11.744Z,985.56
2017-12-25T04:39:11.764Z,985.51
2017-12-25T04:40:11.752Z,985.56
2017-12-25T04:41:11.771Z,985.55
2017-12-25T04:42:11.741Z,985.48
2017-12-25T04:43:11.718Z,985.49
2017-12-25T04:44:11.736Z,985.49
2017-12-25T04:45:13.493Z,985.56
2017-12-25T04:46:11.717Z,985.43
2017-12-25T04:47:11.708Z,985.52
2017-12-25T04:48:11.712Z,985.44
2017-12-25T04:49:14.502Z,985.47
2017-12-25T04:50:11.707Z,985.45
2017-12-25T04:51:11.693Z,985.39
2017-12-25T04:52:11.722Z,985.42
2017-12-25T04:53:11.680Z,985.41
2017-12-25T04:54:11.677Z,985.43
2017-12-25T04:55:11.668Z,985.43
2017-12-25T04:56:11.668Z,985.40
2017-12-25T04:57:11.664Z,985.44
2017-12-25T04:58:11.746Z,985.42
2017-12-25T04:59:11.661Z,985.42
2017-12-25T05:00:11.652Z,985.39
2017-12-25T05:01:13.505Z,985.40
2017-12-25T05:02:11.645Z,985.35
2017-12-25T05:03:11.647Z,985.38
2017-12-25T05:04:11.630Z,985.36
2017-12-25T05:05:11.639Z,985.35
2017-12-25T05:06:11.637Z,985.40
2017-12-25T05:07:11.627Z,985.36
2017-12-25T05:08:11.618Z,985.37
2017-12-25T05:09:11.612Z,985.34
2017-12-25T05:10:11.607Z,985.35
2017-12-25T05:11:13.499Z,985.35
2017-12-25T05:12:11.599Z,985.35
2017-12-25T05:13:11.596Z,985.35
2017-12-25T05:14:11.595Z,985.36
2017-12-25T05:15:11.585Z,985.35
2017-12-25T05:16:13.501Z,985.34
2017-12-25T05:17:11.580Z,985.27
2017-12-25T05:18:11.609Z,985.31
2017-12-25T05:19:11.565Z,985.35
2017-12-25T05:20:11.566Z,985.42
2017-12-25T05:21:11.566Z,985.35
2017-12-25T05:22:11.555Z,985.33
2017-12-25T05:23:11.552Z,985.30
2017-12-25T05:24:11.555Z,985.31
2017-12-25T05:25:11.556Z,985.31
2017-12-25T05:26:11.537Z,985.26
2017-12-25T05:27:11.532Z,985.33
2017-12-25T05:28:11.527Z,985.26
2017-12-25T05:29:11.521Z,985.24
2017-12-25T05:30:11.519Z,985.33
2017-12-25T05:31:11.520Z,985.39
2017-12-25T05:32:11.514Z,985.32
2017-12-25T05:33:11.502Z,985.34
2017-12-25T05:34:11.506Z,985.31
2017-12-25T05:35:11.504Z,985.35
2017-12-25T05:36:11.489Z,985.30
2017-12-25T05:37:11.495Z,985.26
2017-12-25T05:38:13.022Z,985.33
2017-12-25T05:39:11.509Z,985.31
2017-12-25T05:40:11.476Z,985.29
2017-12-25T05:41:14.027Z,985.32
2017-12-25T05:42:11.467Z,985.37
2017-12-25T05:43:11.465Z,985.31
2017-12-25T05:44:11.464Z,985.33
2017-12-25T05:45:11.461Z,985.27
2017-12-25T05:46:11.452Z,985.28
2017-12-25T05:47:13.048Z,985.32
2017-12-25T05:48:11.439Z,985.28
2017-12-25T05:49:13.033Z,985.24
2017-12-25T05:50:11.445Z,985.22
2017-12-25T05:51:11.427Z,985.27
2017-12-25T05:52:13.074Z,985.24
2017-12-25T05:53:11.417Z,985.25
2017-12-25T05:54:13.012Z,985.31
2017-12-25T05:55:11.433Z,985.26
2017-12-25T05:56:11.433Z,985.25
2017-12-25T05:57:11.430Z,985.19
2017-12-25T05:58:11.398Z,985.22
2017-12-25T05:59:11.390Z,985.17
2017-12-25T06:00:11.396Z,985.20
2017-12-25T06:01:14.013Z,985.18
2017-12-25T06:02:11.383Z,985.21
2017-12-25T06:03:11.374Z,985.18
2017-12-25T06:04:11.372Z,985.20
2017-12-25T06:05:11.366Z,985.13
2017-12-25T06:06:13.011Z,985.27
2017-12-25T06:07:11.357Z,985.19
2017-12-25T06:08:11.355Z,985.16
2017-12-25T06:09:11.350Z,985.14
2017-12-25T06:10:11.350Z,985.16
2017-12-25T06:11:11.370Z,985.20
2017-12-25T06:12:14.032Z,985.15
2017-12-25T06:13:13.015Z,985.14
2017-12-25T06:14:11.334Z,985.11
2017-12-25T06:15:11.324Z,985.19
2017-12-25T06:16:11.315Z,985.10
2017-12-25T06:17:11.342Z,985.10
2017-12-25T06:18:11.304Z,985.14
2017-12-25T06:19:11.325Z,985.15
2017-12-25T06:20:11.300Z,985.13
2017-12-25T06:21:11.295Z,985.13
2017-12-25T06:22:11.291Z,985.10
2017-12-25T06:23:11.288Z,985.16
2017-12-25T06:24:11.283Z,985.13
2017-12-25T06:25:11.282Z,985.11
2017-12-25T06:26:11.271Z,985.12
2017-12-25T06:27:11.274Z,985.14
2017-12-25T06:28:11.262Z,985.17
2017-12-25T06:29:11.264Z,985.15
2017-12-25T06:30:11.258Z,985.20
2017-12-25T06:31:11.262Z,985.13
2017-12-25T06:32:11.250Z,985.18
2017-12-25T06:33:11.244Z,985.16
2017-12-25T06:34:11.244Z,985.16
2017-12-25T06:35:11.237Z,985.16
2017-12-25T06:36:11.233Z,985.15
2017-12-25T06:37:11.220Z,985.14
2017-12-25T06:38:11.223Z,985.08
2017-12-25T06:39:14.027Z,985.16
2017-12-25T06:40:11.209Z,985.09
2017-12-25T06:41:11.221Z,985.09
2017-12-25T06:42:11.204Z,985.10
2017-12-25T06:43:11.195Z,985.10
2017-12-25T06:44:11.182Z,985.13
2017-12-25T06:45:11.184Z,985.14
2017-12-25T06:46:13.040Z,985.16
2017-12-25T06:47:13.021Z,985.14
2017-12-25T06:48:11.174Z,985.17
2017-12-25T06:49:11.166Z,985.08
2017-12-25T06:50:11.178Z,985.14
2017-12-25T06:51:11.169Z,985.11
2017-12-25T06:52:11.167Z,985.16
2017-12-25T06:53:11.145Z,985.15
2017-12-25T06:54:11.148Z,985.13
2017-12-25T06:55:11.143Z,985.14
2017-12-25T06:56:11.132Z,985.17
2017-12-25T06:57:11.128Z,985.12
2017-12-25T06:58:11.123Z,985.19
2017-12-25T06:59:11.161Z,985.13
2017-12-25T07:00:11.119Z,985.13
2017-12-25T07:01:11.103Z,985.15
2017-12-25T07:02:11.129Z,985.12
2017-12-25T07:03:13.038Z,985.09
2017-12-25T07:04:11.094Z,985.11
2017-12-25T07:05:11.089Z,985.11
2017-12-25T07:06:11.085Z,985.12
2017-12-25T07:07:14.032Z,985.14
2017-12-25T07:08:12.087Z,984.99
2017-12-25T07:09:11.070Z,985.15
2017-12-25T07:10:11.080Z,985.15
2017-12-25T07:11:13.035Z,985.17
2017-12-25T07:12:11.055Z,985.21
2017-12-25T07:13:11.086Z,985.16
2017-12-25T07:14:11.093Z,985.17
2017-12-25T07:15:11.044Z,985.16
2017-12-25T07:16:11.037Z,985.20
2017-12-25T07:17:11.071Z,985.16
2017-12-25T07:18:11.103Z,985.13
2017-12-25T07:19:11.046Z,985.14
2017-12-25T07:20:11.040Z,985.14
2017-12-25T07:21:11.049Z,985.15
2017-12-25T07:22:11.014Z,985.20
2017-12-25T07:23:11.005Z,985.20
2017-12-25T07:24:11.006Z,985.25
2017-12-25T07:25:10.998Z,985.21
2017-12-25T07:26:10.993Z,985.25
2017-12-25T07:27:10.989Z,985.23
2017-12-25T07:28:10.983Z,985.21
2017-12-25T07:29:11.004Z,985.34
2017-12-25T07:30:10.978Z,985.30
2017-12-25T07:31:10.967Z,985.32
2017-12-25T07:32:10.970Z,985.27
2017-12-25T07:33:12.538Z,985.32
2017-12-25T07:34:10.954Z,985.33
2017-12-25T07:35:12.534Z,985.32
2017-12-25T07:36:10.945Z,985.25
2017-12-25T07:37:10.941Z,985.32
2017-12-25T07:38:10.938Z,985.31
2017-12-25T07:39:10.938Z,985.30
2017-12-25T07:40:10.924Z,985.27
2017-12-25T07:41:10.956Z,985.25
2017-12-25T07:42:10.928Z,985.31
2017-12-25T07:43:10.911Z,985.30
2017-12-25T07:44:10.920Z,985.30
2017-12-25T07:45:10.912Z,985.31
2017-12-25T07:46:10.900Z,985.36
2017-12-25T07:47:10.906Z,985.38
2017-12-25T07:48:11.882Z,985.33
2017-12-25T07:49:10.885Z,985.35
2017-12-25T07:50:10.874Z,985.33
2017-12-25T07:51:10.879Z,985.38
2017-12-25T07:52:10.871Z,985.36
2017-12-25T07:53:13.537Z,985.38
2017-12-25T07:54:10.938Z,985.42
2017-12-25T07:55:13.554Z,985.45
2017-12-25T07:56:10.882Z,985.46
2017-12-25T07:57:10.849Z,985.38
2017-12-25T07:58:10.869Z,985.48
2017-12-25T07:59:10.843Z,985.45
2017-12-25T08:00:10.842Z,985.40
2017-12-25T08:01:10.851Z,985.43
2017-12-25T08:02:10.826Z,985.46
2017-12-25T08:03:10.821Z,985.44
2017-12-25T08:04:10.813Z,985.47
2017-12-25T08:05:10.811Z,985.49
2017-12-25T08:06:10.810Z,985.51
2017-12-25T08:07:10.792Z,985.49
2017-12-25T08:08:10.790Z,985.45
2017-12-25T08:09:10.790Z,985.47
2017-12-25T08:10:10.792Z,985.49
2017-12-25T08:11:10.796Z,985.45
2017-12-25T08:12:11.768Z,985.46
2017-12-25T08:13:10.769Z,985.43
2017-12-25T08:14:10.763Z,985.43
2017-12-25T08:15:12.537Z,985.44
2017-12-25T08:16:10.757Z,985.42
2017-12-25T08:17:10.747Z,985.43
2017-12-25T08:18:10.764Z,985.45
2017-12-25T08:19:10.749Z,985.44
2017-12-25T08:20:12.595Z,985.41
2017-12-25T08:21:10.823Z,985.40
2017-12-25T08:22:10.741Z,985.38
2017-12-25T08:23:10.736Z,985.43
2017-12-25T08:24:10.724Z,985.42
2017-12-25T08:25:10.733Z,985.40
2017-12-25T08:26:10.769Z,985.42
2017-12-25T08:27:10.700Z,985.41
2017-12-25T08:28:10.713Z,985.38
2017-12-25T08:29:10.692Z,985.38
2017-12-25T08:30:10.708Z,985.35
2017-12-25T08:31:10.683Z,985.38
2017-12-25T08:32:10.680Z,985.39
2017-12-25T08:33:10.704Z,985.34
2017-12-25T08:34:10.673Z,985.38
2017-12-25T08:35:10.663Z,985.45
2017-12-25T08:36:10.663Z,985.35
2017-12-25T08:37:12.555Z,985.41
2017-12-25T08:38:10.653Z,985.34
2017-12-25T08:39:10.652Z,985.35
2017-12-25T08:40:10.645Z,985.31
2017-12-25T08:41:12.574Z,985.33
2017-12-25T08:42:10.636Z,985.35
2017-12-25T08:43:10.626Z,985.32
2017-12-25T08:44:10.618Z,985.36
2017-12-25T08:45:10.621Z,985.42
2017-12-25T08:46:10.612Z,985.43
2017-12-25T08:47:10.613Z,985.33
2017-12-25T08:48:10.606Z,985.32
2017-12-25T08:49:10.642Z,985.32
2017-12-25T08:50:10.604Z,985.29
2017-12-25T08:51:10.691Z,985.32
2017-12-25T08:52:10.596Z,985.32
2017-12-25T08:53:10.571Z,985.35
2017-12-25T08:54:10.569Z,985.37
2017-12-25T08:55:10.568Z,985.33
2017-12-25T08:56:10.574Z,985.30
2017-12-25T08:57:10.567Z,985.32
2017-12-25T08:58:10.565Z,985.36
2017-12-25T08:59:10.556Z,985.35
2017-12-25T09:00:10.558Z,985.31
2017-12-25T09:01:10.887Z,985.29
2017-12-25T09:02:10.551Z,985.34
2017-12-25T09:03:10.529Z,985.31
2017-12-25T09:04:10.528Z,985.27
2017-12-25T09:05:10.662Z,985.26
2017-12-25T09:06:10.526Z,985.28
2017-12-25T09:07:10.548Z,985.24
2017-12-25T09:08:10.568Z,985.31
2017-12-25T09:09:10.504Z,985.31
2017-12-25T09:10:10.505Z,985.32
2017-12-25T09:11:10.563Z,985.28
2017-12-25T09:12:12.088Z,985.35
2017-12-25T09:13:10.488Z,985.31
2017-12-25T09:14:10.533Z,985.31
2017-12-25T09:15:10.513Z,985.32
2017-12-25T09:16:10.477Z,985.33
2017-12-25T09:17:11.460Z,985.36
2017-12-25T09:18:10.466Z,985.27
2017-12-25T09:19:13.143Z,985.34
2017-12-25T09:20:10.456Z,985.38
2017-12-25T09:21:10.442Z,985.40
2017-12-25T09:22:10.464Z,985.39
2017-12-25T09:23:12.112Z,985.36
2017-12-25T09:24:10.487Z,985.40
2017-12-25T09:25:10.597Z,985.36
2017-12-25T09:26:10.543Z,985.40
2017-12-25T09:27:13.065Z,985.36
2017-12-25T09:28:10.489Z,985.40
2017-12-25T09:29:12.058Z,985.45
2017-12-25T09:30:10.508Z,985.36
2017-12-25T09:31:12.111Z,985.40
2017-12-25T09:32:10.402Z,985.41
2017-12-25T09:33:12.274Z,985.36
2017-12-25T09:34:10.389Z,985.37
2017-12-25T09:35:13.413Z,985.38
2017-12-25T09:36:10.372Z,985.33
2017-12-25T09:37:10.396Z,985.29
2017-12-25T09:38:10.404Z,985.30
2017-12-25T09:39:11.138Z,985.25
2017-12-25T09:40:10.361Z,985.23
2017-12-25T09:41:10.357Z,985.26
2017-12-25T09:42:10.354Z,985.19
2017-12-25T09:43:13.278Z,985.23
2017-12-25T09:44:10.339Z,985.23
2017-12-25T09:45:10.339Z,985.17
2017-12-25T09:46:12.097Z,985.20
2017-12-25T09:47:10.350Z,985.17
2017-12-25T09:48:10.326Z,985.19
2017-12-25T09:49:10.343Z,985.16
2017-12-25T09:50:10.319Z,985.14
2017-12-25T09:51:10.385Z,985.11
2017-12-25T09:52:12.102Z,985.13
2017-12-25T09:53:10.357Z,985.06
2017-12-25T09:54:10.309Z,985.00
2017-12-25T09:55:10.303Z,985.06
2017-12-25T09:56:10.290Z,985.04
2017-12-25T09:57:12.070Z,985.01
2017-12-25T09:58:10.288Z,985.00
2017-12-25T09:59:10.272Z,984.99
2017-12-25T10:00:10.289Z,984.98
2017-12-25T10:01:10.268Z,984.99
2017-12-25T10:02:10.264Z,984.96
2017-12-25T10:03:10.266Z,984.95
2017-12-25T10:04:12.061Z,984.95
2017-12-25T10:05:10.275Z,984.99
2017-12-25T10:06:13.060Z,984.98
2017-12-25T10:07:10.239Z,984.96
2017-12-25T10:08:11.234Z,984.85
2017-12-25T10:09:10.231Z,984.97
2017-12-25T10:10:10.230Z,984.93
2017-12-25T10:11:10.227Z,984.91
2017-12-25T10:12:10.260Z,984.83
2017-12-25T10:13:10.215Z,984.85
2017-12-25T10:14:10.243Z,984.83
2017-12-25T10:15:10.388Z,984.84
2017-12-25T10:16:12.081Z,984.80
2017-12-25T10:17:10.212Z,984.74
2017-12-25T10:18:10.201Z,984.84
2017-12-25T10:19:10.207Z,984.82
2017-12-25T10:20:10.187Z,984.82
2017-12-25T10:21:10.189Z,984.83
2017-12-25T10:22:12.070Z,984.77
2017-12-25T10:23:10.170Z,984.81
2017-12-25T10:24:10.179Z,984.74
2017-12-25T10:25:10.167Z,984.74
2017-12-25T10:26:10.173Z,984.73
2017-12-25T10:27:10.158Z,984.73
2017-12-25T10:28:10.169Z,984.69
2017-12-25T10:29:10.153Z,984.69
2017-12-25T10:30:10.146Z,984.67
2017-12-25T10:31:10.148Z,984.71
2017-12-25T10:32:10.137Z,984.67
2017-12-25T10:33:10.142Z,984.66
2017-12-25T10:34:10.134Z,984.73
2017-12-25T10:35:10.130Z,984.68
2017-12-25T10:36:10.179Z,984.73
2017-12-25T10:37:11.095Z,984.73
2017-12-25T10:38:10.281Z,984.68
2017-12-25T10:39:10.339Z,984.61
2017-12-25T10:40:10.112Z,984.60
2017-12-25T10:41:10.344Z,984.61
2017-12-25T10:42:10.107Z,984.56
2017-12-25T10:43:10.091Z,984.65
2017-12-25T10:44:10.089Z,984.59
2017-12-25T10:45:10.084Z,984.54
2017-12-25T10:46:10.088Z,984.50
2017-12-25T10:47:10.081Z,984.45
2017-12-25T10:48:10.080Z,984.47
2017-12-25T10:49:11.572Z,984.46
2017-12-25T10:50:10.066Z,984.40
2017-12-25T10:51:10.071Z,984.43
2017-12-25T10:52:10.061Z,984.41
2017-12-25T10:53:10.050Z,984.34
2017-12-25T10:54:10.065Z,984.37
2017-12-25T10:55:10.112Z,984.34
2017-12-25T10:56:10.057Z,984.29
2017-12-25T10:57:11.578Z,984.24
2017-12-25T10:58:10.037Z,984.26
2017-12-25T10:59:10.059Z,984.27
2017-12-25T11:00:10.034Z,984.27
2017-12-25T11:01:10.026Z,984.25
2017-12-25T11:02:10.020Z,984.26
2017-12-25T11:03:10.008Z,984.28
2017-12-25T11:04:10.016Z,984.15
2017-12-25T11:05:10.010Z,984.20
2017-12-25T11:06:10.008Z,984.20
2017-12-25T11:07:09.994Z,984.15
2017-12-25T11:08:10.001Z,984.10
2017-12-25T11:09:10.018Z,984.11
2017-12-25T11:10:09.989Z,984.10
2017-12-25T11:11:09.998Z,984.11
2017-12-25T11:12:09.976Z,984.16
2017-12-25T11:13:09.975Z,984.10
2017-12-25T11:14:11.601Z,984.07
2017-12-25T11:15:09.966Z,984.09
2017-12-25T11:16:09.958Z,984.10
2017-12-25T11:17:09.968Z,984.04
2017-12-25T11:18:09.956Z,984.14
2017-12-25T11:19:09.945Z,984.04
2017-12-25T11:20:11.598Z,984.03
2017-12-25T11:21:10.998Z,984.07
2017-12-25T11:22:10.168Z,984.03
2017-12-25T11:23:09.954Z,984.05
2017-12-25T11:24:09.965Z,983.95
2017-12-25T11:25:09.927Z,983.96
2017-12-25T11:26:09.919Z,983.93
2017-12-25T11:27:09.918Z,983.87
2017-12-25T11:28:09.940Z,983.91
2017-12-25T11:29:09.930Z,983.89
2017-12-25T11:30:09.902Z,983.87
2017-12-25T11:31:09.919Z,983.87
2017-12-25T11:32:09.896Z,983.83
2017-12-25T11:33:09.897Z,983.86
2017-12-25T11:34:09.893Z,983.84
2017-12-25T11:35:09.897Z,983.82
2017-12-25T11:36:09.961Z,983.76
2017-12-25T11:37:10.026Z,983.79
2017-12-25T11:38:09.913Z,983.80
2017-12-25T11:39:10.131Z,983.80
2017-12-25T11:40:10.568Z,983.77
2017-12-25T11:41:10.110Z,983.71
2017-12-25T11:42:09.871Z,983.75
2017-12-25T11:43:10.169Z,983.74
2017-12-25T11:44:09.921Z,983.75
2017-12-25T11:45:09.871Z,983.75
2017-12-25T11:46:10.544Z,983.70
2017-12-25T11:47:09.837Z,983.65
2017-12-25T11:48:09.862Z,983.63
2017-12-25T11:49:09.865Z,983.63
2017-12-25T11:50:09.824Z,983.59
2017-12-25T11:51:09.876Z,983.62
2017-12-25T11:52:11.598Z,983.56
2017-12-25T11:53:09.810Z,983.52
2017-12-25T11:54:09.940Z,983.54
2017-12-25T11:55:09.978Z,983.51
2017-12-25T11:56:13.562Z,983.52
2017-12-25T11:57:11.608Z,983.49
2017-12-25T11:58:09.892Z,983.45
2017-12-25T11:59:10.723Z,983.47
2017-12-25T12:00:11.621Z,983.49
2017-12-25T12:01:09.775Z,983.46
2017-12-25T12:02:09.779Z,983.40
2017-12-25T12:03:09.808Z,983.38
2017-12-25T12:04:09.785Z,983.41
2017-12-25T12:05:09.878Z,983.35
2017-12-25T12:06:09.859Z,983.32
2017-12-25T12:07:09.763Z,983.34
2017-12-25T12:08:09.760Z,983.34
2017-12-25T12:09:09.747Z,983.29
2017-12-25T12:10:10.202Z,983.26
2017-12-25T12:11:12.363Z,983.25
2017-12-25T12:12:09.738Z,983.15
2017-12-25T12:13:09.743Z,983.18
2017-12-25T12:14:09.815Z,983.20
2017-12-25T12:15:09.777Z,983.18
2017-12-25T12:16:10.212Z,983.12
2017-12-25T12:17:10.545Z,983.11
2017-12-25T12:18:09.866Z,983.11
2017-12-25T12:19:09.716Z,983.09
2017-12-25T12:20:09.759Z,983.12
2017-12-25T12:21:09.733Z,983.05
2017-12-25T12:22:09.696Z,983.00
2017-12-25T12:23:09.702Z,983.00
2017-12-25T12:24:09.697Z,982.99
2017-12-25T12:25:09.702Z,982.91
2017-12-25T12:26:09.690Z,982.94
2017-12-25T12:27:09.685Z,982.95
2017-12-25T12:28:09.683Z,982.91
2017-12-25T12:29:09.676Z,982.91
2017-12-25T12:30:09.667Z,982.89
2017-12-25T12:31:09.667Z,982.88
2017-12-25T12:32:11.591Z,982.93
2017-12-25T12:33:09.663Z,982.86
2017-12-25T12:34:09.651Z,982.86
2017-12-25T12:35:11.592Z,982.82
2017-12-25T12:36:09.649Z,982.82
2017-12-25T12:37:09.643Z,982.83
2017-12-25T12:38:09.648Z,982.78
2017-12-25T12:39:09.638Z,982.82
2017-12-25T12:40:09.656Z,982.81
2017-12-25T12:41:09.634Z,982.84
2017-12-25T12:42:09.625Z,982.80
2017-12-25T12:43:09.624Z,982.79
2017-12-25T12:44:09.624Z,982.78
2017-12-25T12:45:09.616Z,982.75
2017-12-25T12:46:11.614Z,982.78